Time;durP1;ratioP1;P1;durP2;ratioP2;P2;SDS_P1;SDS_P2;PMS_P1;PMS_P2;Temp;Humidity;BMP_temperature;BMP_pressure;BME280_temperature;BME280_humidity;BME280_pressure;Samples;Min_cycle;Max_cycle;Signal;HPM_P1;HPM_P2
2021/06/01 00:00:36;;;;;;;49.42;23.60;;;;;;;;;;5092905;28;20032;-64
2021/06/01 00:03:01;;;;;;;51.53;22.50;;;;;;;;;;5093006;28;20059;-64
2021/06/01 00:05:27;;;;;;;52.45;23.35;;;;;;;;;;5099245;28;20020;-64
2021/06/01 00:07:52;;;;;;;53.50;22.35;;;;;;;;;;5113287;28;20055;-64
2021/06/01 00:10:17;;;;;;;53.95;22.33;;;;;;;;;;5113341;28;20395;-64
2021/06/01 00:12:42;;;;;;;50.97;22.85;;;;;;;;;;5113444;28;20027;-65
2021/06/01 00:15:09;;;;;;;54.15;23.48;;;;;;;;;;5113454;28;20034;-65
2021/06/01 00:17:35;;;;;;;52.17;23.08;;;;;;;;;;5113292;28;20083;-64
2021/06/01 00:20:00;;;;;;;56.28;23.67;;;;;;;;;;5104359;28;20095;-64
2021/06/01 00:22:25;;;;;;;52.70;22.70;;;;;;;;;;5091375;28;20029;-64
2021/06/01 00:24:51;;;;;;;46.60;21.55;;;;;;;;;;5093053;28;20028;-64
2021/06/01 00:27:16;;;;;;;60.42;25.83;;;;;;;;;;5092992;28;20093;-64
2021/06/01 00:29:41;;;;;;;51.72;22.00;;;;;;;;;;5092497;28;20040;-65
2021/06/01 00:32:07;;;;;;;54.90;22.05;;;;;;;;;;5092924;28;20024;-64
2021/06/01 00:34:33;;;;;;;53.00;23.05;;;;;;;;;;5092866;28;20107;-64
2021/06/01 00:36:58;;;;;;;44.33;20.88;;;;;;;;;;5096539;28;20030;-64
2021/06/01 00:39:23;;;;;;;59.47;22.92;;;;;;;;;;5097010;28;20077;-64
2021/06/01 00:41:48;;;;;;;51.00;22.65;;;;;;;;;;5096398;28;20471;-64
2021/06/01 00:44:14;;;;;;;50.80;20.92;;;;;;;;;;5096593;28;20046;-64
2021/06/01 00:46:39;;;;;;;47.55;21.10;;;;;;;;;;5096550;28;20020;-64
2021/06/01 00:49:04;;;;;;;45.08;21.67;;;;;;;;;;5096277;28;20024;-64
2021/06/01 00:51:30;;;;;;;60.22;23.60;;;;;;;;;;5096137;28;20115;-65
2021/06/01 00:53:56;;;;;;;49.15;22.60;;;;;;;;;;5096236;28;20059;-65
2021/06/01 00:56:22;;;;;;;48.08;21.30;;;;;;;;;;5096529;28;20020;-65
2021/06/01 00:58:47;;;;;;;60.58;24.10;;;;;;;;;;5096279;28;20115;-65
2021/06/01 01:01:21;;;;;;;43.35;20.40;;;;;;;;;;5096368;28;20350;-64
2021/06/01 01:03:48;;;;;;;51.70;19.70;;;;;;;;;;5096147;28;20153;-65
2021/06/01 01:06:34;;;;;;;52.83;21.70;;;;;;;;;;5108849;28;20031;-65
2021/06/01 01:09:01;;;;;;;56.60;22.40;;;;;;;;;;5116341;28;20063;-64
2021/06/01 01:11:31;;;;;;;55.85;23.88;;;;;;;;;;5097967;28;20048;-65
2021/06/01 01:14:03;;;;;;;43.78;20.63;;;;;;;;;;5116282;28;20024;-64
2021/06/01 01:16:30;;;;;;;44.28;20.63;;;;;;;;;;5115494;28;20030;-64
2021/06/01 01:18:58;;;;;;;49.13;20.70;;;;;;;;;;5116236;28;20035;-65
2021/06/01 01:21:27;;;;;;;44.75;22.08;;;;;;;;;;5116390;28;20430;-64
2021/06/01 01:23:58;;;;;;;45.00;20.60;;;;;;;;;;5116008;28;20040;-65
2021/06/01 01:26:44;;;;;;;51.10;20.48;;;;;;;;;;5116350;28;20042;-65
2021/06/01 01:29:13;;;;;;;47.83;20.30;;;;;;;;;;5115840;28;20051;-65
2021/06/01 01:31:56;;;;;;;50.38;20.38;;;;;;;;;;5116196;28;20038;-65
2021/06/01 01:34:23;;;;;;;52.63;20.35;;;;;;;;;;5115986;28;20098;-65
2021/06/01 01:36:49;;;;;;;48.42;19.92;;;;;;;;;;5116012;28;20042;-65
2021/06/01 01:39:14;;;;;;;51.65;22.05;;;;;;;;;;5115901;28;20024;-65
2021/06/01 01:41:40;;;;;;;60.63;22.58;;;;;;;;;;5115947;28;20031;-64
2021/06/01 01:44:17;;;;;;;46.30;20.88;;;;;;;;;;5115662;28;20468;-65
2021/06/01 01:49:09;;;;;;;53.45;20.60;;;;;;;;;;5115683;28;20043;-65
2021/06/01 01:51:39;;;;;;;45.20;20.33;;;;;;;;;;5115726;28;20028;-65
2021/06/01 01:54:11;;;;;;;59.92;21.27;;;;;;;;;;5115618;28;20072;-65
2021/06/01 01:56:39;;;;;;;48.45;20.33;;;;;;;;;;5115751;28;20027;-64
2021/06/01 01:59:12;;;;;;;57.20;23.58;;;;;;;;;;5115180;28;20299;-65
2021/06/01 02:01:38;;;;;;;46.88;21.08;;;;;;;;;;5115251;28;20038;-64
2021/06/01 02:04:04;;;;;;;59.15;23.92;;;;;;;;;;5115415;28;20035;-64
2021/06/01 02:06:30;;;;;;;48.72;21.95;;;;;;;;;;5115601;28;20070;-65
2021/06/01 02:08:55;;;;;;;63.92;21.95;;;;;;;;;;5114960;28;20036;-64
2021/06/01 02:11:21;;;;;;;44.50;21.00;;;;;;;;;;5115571;28;20078;-65
2021/06/01 02:13:53;;;;;;;58.88;23.17;;;;;;;;;;5115209;28;20028;-64
2021/06/01 02:16:18;;;;;;;47.50;20.83;;;;;;;;;;5097083;28;20027;-64
2021/06/01 02:18:44;;;;;;;45.28;20.13;;;;;;;;;;5115183;28;20508;-64
2021/06/01 02:21:34;;;;;;;49.05;21.27;;;;;;;;;;5115645;28;20022;-64
2021/06/01 02:24:02;;;;;;;48.50;21.17;;;;;;;;;;5114905;28;20043;-65
2021/06/01 02:26:37;;;;;;;49.70;21.70;;;;;;;;;;5115209;28;20065;-65
2021/06/01 02:29:05;;;;;;;52.28;22.60;;;;;;;;;;5114709;28;20806;-65
2021/06/01 02:31:33;;;;;;;51.33;21.00;;;;;;;;;;5114967;28;20023;-64
2021/06/01 02:34:00;;;;;;;47.95;20.38;;;;;;;;;;5114464;28;20476;-64
2021/06/01 02:36:26;;;;;;;53.78;21.90;;;;;;;;;;5114890;28;20032;-65
2021/06/01 02:38:52;;;;;;;69.35;25.48;;;;;;;;;;5114735;28;20426;-65
2021/06/01 02:41:18;;;;;;;46.90;22.95;;;;;;;;;;5114752;28;20055;-65
2021/06/01 02:43:43;;;;;;;55.10;23.17;;;;;;;;;;5114539;28;20044;-64
2021/06/01 02:46:08;;;;;;;57.83;23.98;;;;;;;;;;5114710;28;20095;-64
2021/06/01 02:48:34;;;;;;;63.33;23.83;;;;;;;;;;5114450;28;20036;-65
2021/06/01 02:51:14;;;;;;;49.75;21.95;;;;;;;;;;5114639;28;20031;-64
2021/06/01 02:53:41;;;;;;;55.03;22.70;;;;;;;;;;5114452;28;20402;-64
2021/06/01 02:56:06;;;;;;;54.60;21.92;;;;;;;;;;5114501;28;20031;-65
2021/06/01 02:58:32;;;;;;;46.58;20.80;;;;;;;;;;5114268;28;20012;-65
2021/06/01 03:01:01;;;;;;;58.45;23.98;;;;;;;;;;5114387;28;20035;-65
2021/06/01 03:03:26;;;;;;;58.83;22.90;;;;;;;;;;5114237;28;20040;-64
2021/06/01 03:05:51;;;;;;;58.47;23.38;;;;;;;;;;5104695;28;20019;-65
2021/06/01 03:08:21;;;;;;;62.17;23.80;;;;;;;;;;5093470;28;20038;-65
2021/06/01 03:10:46;;;;;;;65.47;23.85;;;;;;;;;;5093763;28;20044;-65
2021/06/01 03:13:11;;;;;;;60.42;22.70;;;;;;;;;;5093882;28;20461;-65
2021/06/01 03:15:36;;;;;;;56.25;22.73;;;;;;;;;;5093540;28;20022;-64
2021/06/01 03:18:02;;;;;;;53.28;22.08;;;;;;;;;;5093668;28;20079;-65
2021/06/01 03:20:27;;;;;;;52.03;21.83;;;;;;;;;;5093774;28;20445;-64
2021/06/01 03:22:52;;;;;;;61.08;22.67;;;;;;;;;;5093590;28;20039;-65
2021/06/01 03:25:18;;;;;;;50.40;21.77;;;;;;;;;;5093936;28;20024;-65
2021/06/01 03:27:43;;;;;;;61.53;23.63;;;;;;;;;;5093643;28;20020;-65
2021/06/01 03:30:09;;;;;;;50.70;21.95;;;;;;;;;;5093159;28;20095;-64
2021/06/01 03:32:35;;;;;;;50.75;21.02;;;;;;;;;;5093480;28;20044;-64
2021/06/01 03:35:00;;;;;;;63.95;25.15;;;;;;;;;;5102971;28;20375;-65
2021/06/01 03:37:25;;;;;;;64.50;25.48;;;;;;;;;;5113877;28;20065;-64
2021/06/01 03:39:50;;;;;;;68.80;24.38;;;;;;;;;;5113416;28;20027;-65
2021/06/01 03:42:16;;;;;;;71.10;25.50;;;;;;;;;;5113833;28;20066;-64
2021/06/01 03:44:42;;;;;;;71.30;24.38;;;;;;;;;;5113515;28;20057;-64
2021/06/01 03:47:07;;;;;;;63.72;23.38;;;;;;;;;;5113773;28;20039;-65
2021/06/01 03:49:33;;;;;;;59.53;23.77;;;;;;;;;;5113304;28;20016;-64
2021/06/01 03:51:59;;;;;;;50.33;22.92;;;;;;;;;;5113619;28;20020;-64
2021/06/01 03:54:25;;;;;;;60.60;22.15;;;;;;;;;;5113586;28;20039;-62
2021/06/01 03:56:51;;;;;;;51.13;20.73;;;;;;;;;;5113648;28;20047;-62
2021/06/01 03:59:16;;;;;;;58.08;22.77;;;;;;;;;;5113439;28;20023;-62
2021/06/01 04:01:41;;;;;;;67.32;24.30;;;;;;;;;;5113623;28;20592;-62
2021/06/01 04:04:07;;;;;;;62.83;22.73;;;;;;;;;;5113437;28;20024;-62
2021/06/01 04:06:34;;;;;;;63.83;25.23;;;;;;;;;;5113568;28;20414;-62
2021/06/01 04:08:59;;;;;;;51.63;22.35;;;;;;;;;;5113358;28;20039;-62
2021/06/01 04:11:24;;;;;;;60.92;23.70;;;;;;;;;;5116164;28;20088;-62
2021/06/01 04:13:49;;;;;;;56.22;23.10;;;;;;;;;;5117493;28;20031;-62
2021/06/01 04:16:15;;;;;;;54.97;22.25;;;;;;;;;;5117735;28;20035;-64
2021/06/01 04:18:41;;;;;;;62.55;22.08;;;;;;;;;;5117174;28;20098;-64
2021/06/01 04:21:06;;;;;;;55.28;22.95;;;;;;;;;;5117515;28;20102;-65
2021/06/01 04:23:31;;;;;;;49.03;20.33;;;;;;;;;;5117465;28;20070;-65
2021/06/01 04:25:57;;;;;;;49.30;19.80;;;;;;;;;;5117467;28;20019;-65
2021/06/01 04:28:22;;;;;;;64.38;21.70;;;;;;;;;;5117656;28;20020;-65
2021/06/01 04:30:47;;;;;;;56.30;22.90;;;;;;;;;;5117090;28;20070;-65
2021/06/01 04:33:13;;;;;;;56.67;20.65;;;;;;;;;;5117133;28;20058;-65
2021/06/01 04:35:38;;;;;;;56.08;22.23;;;;;;;;;;5117308;28;20059;-65
2021/06/01 04:38:03;;;;;;;56.50;22.08;;;;;;;;;;5117270;28;20027;-65
2021/06/01 04:40:29;;;;;;;58.75;21.58;;;;;;;;;;5117126;28;20421;-65
2021/06/01 04:42:54;;;;;;;48.70;20.95;;;;;;;;;;5117270;28;20032;-65
2021/06/01 04:45:19;;;;;;;66.18;20.98;;;;;;;;;;5116963;28;20084;-65
2021/06/01 04:47:44;;;;;;;103.63;25.17;;;;;;;;;;5117021;28;20376;-65
2021/06/01 04:50:10;;;;;;;80.18;19.88;;;;;;;;;;5116973;28;20102;-65
2021/06/01 04:52:35;;;;;;;102.78;20.60;;;;;;;;;;5116855;28;20459;-65
2021/06/01 04:55:01;;;;;;;116.35;23.23;;;;;;;;;;5117131;28;20058;-65
2021/06/01 04:57:26;;;;;;;100.55;20.35;;;;;;;;;;5116998;28;20153;-66
2021/06/01 04:59:52;;;;;;;340.25;36.03;;;;;;;;;;5116609;28;20445;-65
2021/06/01 05:02:17;;;;;;;79.82;16.73;;;;;;;;;;5116798;28;20019;-63
2021/06/01 05:04:42;;;;;;;143.23;18.90;;;;;;;;;;5116631;28;20023;-63
2021/06/01 05:07:08;;;;;;;1147.03;106.28;;;;;;;;;;5096403;28;20465;-63
2021/06/01 05:09:33;;;;;;;374.38;42.70;;;;;;;;;;5095634;28;20130;-63
2021/06/01 05:11:59;;;;;;;75.97;17.65;;;;;;;;;;5094637;28;20449;-63
2021/06/01 05:14:24;;;;;;;124.93;17.98;;;;;;;;;;5094908;28;20039;-63
2021/06/01 05:16:49;;;;;;;35.42;10.40;;;;;;;;;;5094868;28;20067;-63
2021/06/01 05:19:15;;;;;;;80.55;17.10;;;;;;;;;;5094887;28;20116;-63
2021/06/01 05:21:40;;;;;;;64.85;14.65;;;;;;;;;;5094434;28;20369;-63
2021/06/01 05:24:07;;;;;;;12.45;8.13;;;;;;;;;;5094351;28;20109;-63
2021/06/01 05:26:32;;;;;;;11.10;7.95;;;;;;;;;;5094794;28;20028;-63
2021/06/01 05:28:57;;;;;;;10.07;6.57;;;;;;;;;;5094608;28;20036;-63
2021/06/01 05:34:02;;;;;;;8.38;6.80;;;;;;;;;;5094536;28;20036;-63
2021/06/01 05:36:27;;;;;;;7.70;6.07;;;;;;;;;;5094523;28;20047;-63
2021/06/01 05:38:54;;;;;;;6.55;5.55;;;;;;;;;;5094482;28;20016;-63
2021/06/01 05:41:20;;;;;;;9.32;6.13;;;;;;;;;;5094454;28;20173;-63
2021/06/01 05:43:45;;;;;;;10.32;6.18;;;;;;;;;;5094700;28;20479;-63
2021/06/01 05:46:10;;;;;;;7.55;5.35;;;;;;;;;;5094434;28;20107;-63
2021/06/01 05:48:36;;;;;;;6.20;4.95;;;;;;;;;;5094306;28;20423;-63
2021/06/01 05:51:02;;;;;;;6.35;5.20;;;;;;;;;;5094317;28;20024;-63
2021/06/01 05:53:27;;;;;;;9.50;5.43;;;;;;;;;;5094265;28;20456;-63
2021/06/01 05:55:53;;;;;;;6.18;4.50;;;;;;;;;;5094299;28;20064;-63
2021/06/01 05:58:18;;;;;;;6.82;4.22;;;;;;;;;;5094244;28;20024;-63
2021/06/01 06:00:44;;;;;;;6.35;4.15;;;;;;;;;;5094102;28;20103;-63
2021/06/01 06:03:10;;;;;;;9.23;4.13;;;;;;;;;;5094133;28;20047;-64
2021/06/01 06:05:35;;;;;;;5.88;3.70;;;;;;;;;;5101187;28;20082;-64
2021/06/01 06:08:12;;;;;;;8.93;4.07;;;;;;;;;;5114482;28;20015;-64
2021/06/01 06:10:38;;;;;;;5.35;3.83;;;;;;;;;;5073226;28;1174485;-64
2021/06/01 06:13:04;;;;;;;7.95;4.13;;;;;;;;;;5115042;28;20066;-64
2021/06/01 06:15:29;;;;;;;5.85;3.92;;;;;;;;;;5115177;28;20094;-64
2021/06/01 06:18:02;;;;;;;7.13;4.05;;;;;;;;;;5115649;28;20020;-65
2021/06/01 06:20:28;;;;;;;5.93;4.43;;;;;;;;;;5115049;28;20075;-64
2021/06/01 06:22:53;;;;;;;6.63;4.75;;;;;;;;;;5115130;28;20050;-64
2021/06/01 06:25:19;;;;;;;7.35;4.05;;;;;;;;;;5114984;28;20400;-64
2021/06/01 06:27:44;;;;;;;8.07;3.85;;;;;;;;;;5115094;28;20584;-64
2021/06/01 06:30:10;;;;;;;6.05;4.00;;;;;;;;;;5114822;28;20015;-65
2021/06/01 06:32:35;;;;;;;5.65;3.67;;;;;;;;;;5114396;28;20076;-64
2021/06/01 06:35:01;;;;;;;4.40;3.55;;;;;;;;;;5114773;28;20080;-65
2021/06/01 06:37:26;;;;;;;5.65;4.10;;;;;;;;;;5114872;28;20392;-65
2021/06/01 06:39:52;;;;;;;5.03;3.63;;;;;;;;;;5114828;28;20026;-65
2021/06/01 06:42:17;;;;;;;5.05;3.58;;;;;;;;;;5114349;28;20083;-64
2021/06/01 06:44:46;;;;;;;5.13;3.85;;;;;;;;;;5113776;28;20023;-65
2021/06/01 06:49:38;;;;;;;6.18;3.58;;;;;;;;;;5114872;28;20035;-65
2021/06/01 06:52:06;;;;;;;7.45;5.20;;;;;;;;;;5114563;28;20027;-65
2021/06/01 06:54:31;;;;;;;7.63;3.60;;;;;;;;;;5114588;28;20028;-65
2021/06/01 06:56:56;;;;;;;6.95;4.60;;;;;;;;;;5114453;28;20032;-65
2021/06/01 06:59:22;;;;;;;4.88;4.07;;;;;;;;;;5114417;28;20020;-65
2021/06/01 07:01:47;;;;;;;5.10;4.13;;;;;;;;;;5114446;28;20051;-64
2021/06/01 07:04:12;;;;;;;11.30;6.78;;;;;;;;;;5114214;28;20035;-65
2021/06/01 07:06:38;;;;;;;8.45;4.22;;;;;;;;;;5098311;28;20078;-65
2021/06/01 07:09:04;;;;;;;8.55;6.60;;;;;;;;;;5093682;28;20428;-65
2021/06/01 07:11:29;;;;;;;6.65;3.95;;;;;;;;;;5094238;28;20036;-65
2021/06/01 07:14:07;;;;;;;8.98;5.80;;;;;;;;;;5093606;28;20051;-65
2021/06/01 07:16:32;;;;;;;11.05;6.30;;;;;;;;;;5109118;28;20472;-65
2021/06/01 07:18:58;;;;;;;9.65;6.43;;;;;;;;;;5114054;28;20120;-65
2021/06/01 07:21:23;;;;;;;15.80;7.13;;;;;;;;;;5113684;28;20814;-65
2021/06/01 07:23:48;;;;;;;10.98;7.78;;;;;;;;;;5108612;28;20027;-64
2021/06/01 07:26:14;;;;;;;9.05;6.60;;;;;;;;;;5089306;28;20081;-65
2021/06/01 07:28:39;;;;;;;11.95;6.10;;;;;;;;;;5091156;28;20046;-65
2021/06/01 07:31:05;;;;;;;11.75;6.57;;;;;;;;;;5092082;28;20443;-64
2021/06/01 07:33:31;;;;;;;9.23;6.25;;;;;;;;;;5092322;28;20532;-65
2021/06/01 07:35:56;;;;;;;10.65;7.15;;;;;;;;;;5092265;28;20023;-66
2021/06/01 07:38:22;;;;;;;8.85;6.50;;;;;;;;;;5092053;28;20028;-65
2021/06/01 07:40:47;;;;;;;9.80;6.72;;;;;;;;;;5092426;28;20047;-66
2021/06/01 07:43:12;;;;;;;9.75;6.70;;;;;;;;;;5092834;28;20039;-66
2021/06/01 07:45:38;;;;;;;13.93;6.60;;;;;;;;;;5091622;28;20433;-66
2021/06/01 07:48:03;;;;;;;9.90;7.13;;;;;;;;;;5091298;28;20300;-66
2021/06/01 07:50:29;;;;;;;9.23;6.60;;;;;;;;;;5073499;28;20024;-66
2021/06/01 07:52:54;;;;;;;13.18;6.43;;;;;;;;;;5092591;28;20036;-66
2021/06/01 07:55:19;;;;;;;11.73;6.78;;;;;;;;;;5091829;28;20039;-68
2021/06/01 07:57:45;;;;;;;9.10;6.70;;;;;;;;;;5092337;28;20134;-67
2021/06/01 08:00:11;;;;;;;11.15;7.20;;;;;;;;;;5091305;28;20743;-68
2021/06/01 08:02:36;;;;;;;9.27;6.78;;;;;;;;;;5091953;28;20130;-67
2021/06/01 08:05:02;;;;;;;12.38;6.70;;;;;;;;;;5095007;28;20471;-67
2021/06/01 08:07:27;;;;;;;7.70;6.80;;;;;;;;;;5112502;28;20024;-68
2021/06/01 08:09:52;;;;;;;8.68;6.18;;;;;;;;;;5110631;28;20051;-67
2021/06/01 08:12:18;;;;;;;13.57;6.43;;;;;;;;;;5112498;28;20034;-67
2021/06/01 08:14:43;;;;;;;10.77;6.13;;;;;;;;;;5108376;28;20312;-67
2021/06/01 08:17:09;;;;;;;11.05;6.70;;;;;;;;;;5111995;28;20047;-67
2021/06/01 08:19:39;;;;;;;8.05;6.20;;;;;;;;;;5112278;28;20479;-67
2021/06/01 08:22:30;;;;;;;10.30;6.95;;;;;;;;;;5111925;28;20043;-67
2021/06/01 08:24:55;;;;;;;9.20;6.20;;;;;;;;;;5106159;28;20108;-67
2021/06/01 08:27:20;;;;;;;9.60;6.90;;;;;;;;;;5112429;28;20028;-67
2021/06/01 08:29:46;;;;;;;10.75;6.82;;;;;;;;;;5111959;28;20044;-67
2021/06/01 08:32:11;;;;;;;10.63;6.97;;;;;;;;;;5111389;28;20103;-65
2021/06/01 08:34:36;;;;;;;13.73;6.90;;;;;;;;;;5112731;28;20256;-67
2021/06/01 08:37:02;;;;;;;16.60;7.90;;;;;;;;;;5111333;28;20035;-67
2021/06/01 08:39:27;;;;;;;9.90;5.72;;;;;;;;;;5111323;28;20246;-66
2021/06/01 08:41:54;;;;;;;10.55;6.75;;;;;;;;;;5109887;28;20103;-67
2021/06/01 08:44:19;;;;;;;8.88;6.20;;;;;;;;;;5110217;28;20442;-67
2021/06/01 08:46:49;;;;;;;8.40;6.10;;;;;;;;;;5110751;28;20103;-67
2021/06/01 08:49:15;;;;;;;10.27;6.22;;;;;;;;;;5110929;28;20020;-67
2021/06/01 08:51:40;;;;;;;10.85;7.18;;;;;;;;;;5112765;28;20063;-67
2021/06/01 08:54:06;;;;;;;7.53;6.10;;;;;;;;;;5104716;28;20054;-67
2021/06/01 08:56:31;;;;;;;10.98;6.45;;;;;;;;;;5113632;28;20031;-68
2021/06/01 08:58:56;;;;;;;14.70;7.38;;;;;;;;;;5116392;28;20719;-68
2021/06/01 09:01:22;;;;;;;7.90;6.27;;;;;;;;;;5116315;28;20044;-68
2021/06/01 09:03:52;;;;;;;10.25;6.38;;;;;;;;;;5116055;28;20291;-69
2021/06/01 09:06:28;;;;;;;8.00;6.70;;;;;;;;;;5103031;28;20419;-68
2021/06/01 09:09:21;;;;;;;11.55;5.68;;;;;;;;;;5096094;28;20043;-68
2021/06/01 09:12:29;;;;;;;7.63;5.60;;;;;;;;;;5094028;28;20068;-67
2021/06/01 09:22:31;;;;;;;8.93;5.07;;;;;;;;;;5091336;28;20465;-68
2021/06/01 09:25:02;;;;;;;7.60;5.05;;;;;;;;;;5089518;28;20126;-68
2021/06/01 09:27:30;;;;;;;7.75;4.90;;;;;;;;;;5089730;28;20089;-68
2021/06/01 09:29:55;;;;;;;9.88;5.53;;;;;;;;;;5092078;28;20492;-67
2021/06/01 09:32:22;;;;;;;8.23;5.40;;;;;;;;;;5091440;28;20059;-68
2021/06/01 09:34:51;;;;;;;6.80;4.72;;;;;;;;;;5092130;28;20043;-65
2021/06/01 09:37:24;;;;;;;8.57;4.95;;;;;;;;;;5092848;28;20380;-68
2021/06/01 09:40:09;;;;;;;5.68;4.78;;;;;;;;;;5091681;28;20024;-65
2021/06/01 09:42:36;;;;;;;9.10;5.15;;;;;;;;;;5091799;28;20085;-67
2021/06/01 09:45:21;;;;;;;7.55;5.30;;;;;;;;;;5092192;28;20035;-68
2021/06/01 09:47:50;;;;;;;8.27;5.38;;;;;;;;;;5091534;28;20047;-67
2021/06/01 09:50:40;;;;;;;9.18;5.38;;;;;;;;;;5091273;28;20108;-67
2021/06/01 09:53:07;;;;;;;8.23;5.53;;;;;;;;;;5089887;28;20100;-68
2021/06/01 09:55:35;;;;;;;10.52;5.13;;;;;;;;;;5092099;28;20039;-67
2021/06/01 09:58:02;;;;;;;10.35;5.38;;;;;;;;;;5091845;28;20039;-68
2021/06/01 10:00:30;;;;;;;8.45;5.80;;;;;;;;;;5092246;28;20020;-68
2021/06/01 10:03:08;;;;;;;11.25;5.90;;;;;;;;;;5092038;28;20142;-68
2021/06/01 10:05:35;;;;;;;9.38;5.75;;;;;;;;;;5098694;28;20160;-67
2021/06/01 10:08:24;;;;;;;13.77;6.30;;;;;;;;;;5111677;28;20058;-68
2021/06/01 10:10:59;;;;;;;9.38;5.55;;;;;;;;;;5111634;28;20495;-68
2021/06/01 10:13:27;;;;;;;12.27;5.95;;;;;;;;;;5111764;28;20028;-68
2021/06/01 10:15:53;;;;;;;10.20;6.28;;;;;;;;;;5109425;28;20032;-67
2021/06/01 10:18:19;;;;;;;7.75;5.63;;;;;;;;;;5090976;28;20058;-67
2021/06/01 10:20:45;;;;;;;10.40;6.68;;;;;;;;;;5089113;28;20066;-67
2021/06/01 10:23:11;;;;;;;8.48;5.95;;;;;;;;;;5090913;28;20044;-65
2021/06/01 10:25:36;;;;;;;8.77;6.75;;;;;;;;;;5091909;28;20110;-67
2021/06/01 10:28:04;;;;;;;13.77;6.15;;;;;;;;;;5091201;28;20064;-67
2021/06/01 10:30:30;;;;;;;10.10;5.40;;;;;;;;;;5090885;28;20035;-68
2021/06/01 10:32:58;;;;;;;8.52;6.05;;;;;;;;;;5091127;28;20067;-67
2021/06/01 10:35:24;;;;;;;7.78;4.78;;;;;;;;;;5090959;28;20028;-66
2021/06/01 10:51:53;;;;;;;6.30;3.75;;;;;;;;;;5110758;28;20043;-66
2021/06/01 10:54:37;;;;;;;9.60;3.72;;;;;;;;;;5110953;28;20039;-66
2021/06/01 10:57:02;;;;;;;6.75;3.08;;;;;;;;;;5111298;28;20104;-66
2021/06/01 11:02:17;;;;;;;4.78;2.83;;;;;;;;;;5093855;28;20035;-67
2021/06/01 11:05:03;;;;;;;3.70;2.33;;;;;;;;;;5110726;28;20082;-68
2021/06/01 11:07:48;;;;;;;6.00;3.60;;;;;;;;;;5091136;28;20156;-69
2021/06/01 11:10:34;;;;;;;9.25;3.13;;;;;;;;;;5071910;28;20432;-68
2021/06/01 11:12:59;;;;;;;6.78;3.22;;;;;;;;;;5090397;28;20118;-68
2021/06/01 11:15:26;;;;;;;8.70;3.45;;;;;;;;;;5090475;28;21042;-67
2021/06/01 11:17:52;;;;;;;6.53;3.10;;;;;;;;;;5090384;28;20111;-68
2021/06/01 11:20:36;;;;;;;5.43;3.20;;;;;;;;;;5089574;28;20107;-67
2021/06/01 11:33:27;;;;;;;7.65;3.00;;;;;;;;;;5109516;28;20088;-68
2021/06/01 11:35:54;;;;;;;6.40;2.97;;;;;;;;;;5110131;28;20031;-68
2021/06/01 11:38:23;;;;;;;7.72;2.90;;;;;;;;;;5110408;28;20043;-67
2021/06/01 11:41:02;;;;;;;5.82;2.50;;;;;;;;;;5110376;28;20078;-67
2021/06/01 11:43:28;;;;;;;7.07;2.70;;;;;;;;;;5109806;28;20039;-68
2021/06/01 11:46:04;;;;;;;4.32;2.70;;;;;;;;;;5110185;28;20038;-68
2021/06/01 11:51:15;;;;;;;8.02;3.83;;;;;;;;;;5106956;28;20043;-68
2021/06/01 11:53:54;;;;;;;8.73;3.55;;;;;;;;;;5108494;28;20380;-68
2021/06/01 11:56:34;;;;;;;6.15;2.95;;;;;;;;;;5088812;28;20078;-68
2021/06/01 12:18:17;;;;;;;5.05;3.88;;;;;;;;;;5089395;28;20089;-67
2021/06/01 12:20:43;;;;;;;5.75;3.38;;;;;;;;;;5088783;28;20020;-67
2021/06/01 12:23:27;;;;;;;8.00;3.70;;;;;;;;;;5089798;28;20043;-68
2021/06/01 12:25:58;;;;;;;6.93;3.72;;;;;;;;;;5082230;28;20043;-67
2021/06/01 12:31:11;;;;;;;7.93;3.50;;;;;;;;;;5111098;27;20486;-68
2021/06/01 12:33:36;;;;;;;9.48;4.82;;;;;;;;;;5114376;28;20023;-68
2021/06/01 12:44:08;;;;;;;6.35;4.28;;;;;;;;;;5093399;28;20035;-68
2021/06/01 13:19:31;;;;;;;5.75;3.30;;;;;;;;;;5113144;28;20062;-67
2021/06/01 13:22:15;;;;;;;6.97;2.97;;;;;;;;;;5108083;28;20461;-68
2021/06/01 13:38:38;;;;;;;7.38;2.90;;;;;;;;;;5112037;28;20077;-68
2021/06/01 13:47:00;;;;;;;5.25;2.92;;;;;;;;;;5091573;28;20130;-68
2021/06/01 13:49:36;;;;;;;8.05;2.92;;;;;;;;;;5091493;28;20037;-68
2021/06/01 13:52:12;;;;;;;4.82;3.13;;;;;;;;;;5104756;28;20111;-68
2021/06/01 14:11:29;;;;;;;4.50;2.40;;;;;;;;;;5098424;28;20142;-68
2021/06/01 15:10:08;;;;;;;6.35;3.15;;;;;;;;;;5037785;28;20128;-68
2021/06/01 15:28:58;;;;;;;10.25;3.10;;;;;;;;;;5106555;28;20050;-68
2021/06/01 15:47:49;;;;;;;7.22;3.75;;;;;;;;;;5107002;28;20030;-67
2021/06/01 15:56:02;;;;;;;5.18;3.58;;;;;;;;;;5098746;28;20036;-68
2021/06/01 16:11:22;;;;;;;7.10;4.40;;;;;;;;;;5089357;28;20043;-67
2021/06/01 16:13:15;;;;;;;6.38;4.03;;;;;;;;;;5030973;28;20048;-68
2021/06/01 16:23:37;;;;;;;10.13;3.53;;;;;;;;;;5114021;28;20169;-68
2021/06/01 16:31:46;;;;;;;6.00;3.10;;;;;;;;;;5113351;28;20051;-67
2021/06/01 16:42:33;;;;;;;5.30;3.17;;;;;;;;;;5113190;28;20491;-68
2021/06/01 17:07:04;;;;;;;5.57;2.70;;;;;;;;;;5103308;28;20069;-68
2021/06/01 17:12:19;;;;;;;4.72;2.67;;;;;;;;;;5097162;28;20065;-68
2021/06/01 17:14:45;;;;;;;6.55;2.75;;;;;;;;;;5108128;28;20035;-68
2021/06/01 17:17:12;;;;;;;4.68;2.70;;;;;;;;;;5113183;28;20080;-68
2021/06/01 17:35:39;;;;;;;4.13;2.53;;;;;;;;;;5100474;28;20081;-68
2021/06/01 17:38:05;;;;;;;5.18;2.40;;;;;;;;;;5108695;28;20016;-68
2021/06/01 17:40:32;;;;;;;4.57;2.60;;;;;;;;;;5083930;28;20038;-66
2021/06/01 17:43:02;;;;;;;4.20;2.25;;;;;;;;;;5105712;28;20020;-68
2021/06/01 17:45:30;;;;;;;4.95;2.83;;;;;;;;;;5098923;28;20019;-67
2021/06/01 17:48:00;;;;;;;13.93;3.40;;;;;;;;;;5107045;28;20043;-67
2021/06/01 17:50:25;;;;;;;8.52;2.80;;;;;;;;;;5098604;28;20514;-67
2021/06/01 17:52:55;;;;;;;5.35;2.83;;;;;;;;;;5098313;28;20020;-68
2021/06/01 17:55:21;;;;;;;7.80;2.95;;;;;;;;;;5100349;28;20042;-68
2021/06/01 17:57:48;;;;;;;5.85;2.85;;;;;;;;;;5101741;28;20015;-67
2021/06/01 18:00:13;;;;;;;4.07;2.70;;;;;;;;;;5096756;28;20122;-67
2021/06/01 18:02:39;;;;;;;5.75;3.03;;;;;;;;;;5102496;28;20114;-68
2021/06/01 18:05:05;;;;;;;5.68;2.78;;;;;;;;;;5097367;28;20032;-67
2021/06/01 18:07:46;;;;;;;7.50;3.22;;;;;;;;;;5102045;28;20020;-68
2021/06/01 18:29:29;;;;;;;7.25;2.88;;;;;;;;;;5098291;28;20048;-68
2021/06/01 19:21:25;;;;;;;6.95;2.55;;;;;;;;;;5097064;28;20077;-67
2021/06/01 19:50:17;;;;;;;5.55;2.85;;;;;;;;;;5097192;28;20426;-67
2021/06/01 19:52:44;;;;;;;5.20;2.53;;;;;;;;;;5101425;28;20039;-66
2021/06/01 19:55:09;;;;;;;4.22;2.13;;;;;;;;;;5108194;28;20031;-66
2021/06/01 19:57:35;;;;;;;7.10;2.35;;;;;;;;;;5108591;28;20020;-66
2021/06/01 20:00:00;;;;;;;6.13;2.40;;;;;;;;;;5108139;28;20038;-67
2021/06/01 20:02:27;;;;;;;5.18;2.97;;;;;;;;;;5109372;28;20077;-67
2021/06/01 20:04:53;;;;;;;4.80;2.10;;;;;;;;;;5096994;28;20019;-66
2021/06/01 20:07:19;;;;;;;5.97;2.60;;;;;;;;;;5097959;28;20499;-66
2021/06/01 20:09:45;;;;;;;3.70;2.20;;;;;;;;;;5097865;28;20052;-67
2021/06/01 20:12:12;;;;;;;6.50;2.38;;;;;;;;;;5104489;28;20173;-66
2021/06/01 20:14:37;;;;;;;4.57;2.30;;;;;;;;;;5106378;28;20027;-66
2021/06/01 20:17:06;;;;;;;4.15;2.72;;;;;;;;;;5095307;28;20098;-66
2021/06/01 20:19:33;;;;;;;5.03;2.60;;;;;;;;;;5102271;28;20107;-67
2021/06/01 20:22:01;;;;;;;7.40;2.67;;;;;;;;;;5105879;28;20074;-66
2021/06/01 20:24:28;;;;;;;4.60;2.72;;;;;;;;;;5104990;28;20075;-66
2021/06/01 20:26:53;;;;;;;4.57;2.72;;;;;;;;;;5093013;28;20057;-66
2021/06/01 20:29:21;;;;;;;3.70;2.20;;;;;;;;;;5109242;28;20039;-66
2021/06/01 20:31:57;;;;;;;4.40;2.55;;;;;;;;;;5096440;28;20051;-66
2021/06/01 20:34:22;;;;;;;4.35;2.58;;;;;;;;;;5107306;28;20031;-66
2021/06/01 20:36:47;;;;;;;5.45;2.30;;;;;;;;;;5105246;28;20077;-66
2021/06/01 20:39:13;;;;;;;4.90;2.28;;;;;;;;;;5097600;28;20055;-66
2021/06/01 20:41:38;;;;;;;8.43;2.72;;;;;;;;;;5085483;28;20491;-66
2021/06/01 20:44:04;;;;;;;8.93;2.70;;;;;;;;;;5102568;28;20043;-66
2021/06/01 20:46:31;;;;;;;3.78;2.50;;;;;;;;;;5106542;28;20504;-66
2021/06/01 20:48:57;;;;;;;8.13;2.60;;;;;;;;;;5103086;28;20024;-67
2021/06/01 20:51:22;;;;;;;5.20;2.50;;;;;;;;;;5097411;28;20040;-66
2021/06/01 20:53:48;;;;;;;6.85;2.55;;;;;;;;;;5098576;28;20027;-66
2021/06/01 20:56:13;;;;;;;10.20;2.70;;;;;;;;;;5107775;28;20429;-66
2021/06/01 20:58:38;;;;;;;3.90;2.63;;;;;;;;;;5112023;28;20028;-66
2021/06/01 21:01:04;;;;;;;6.68;2.70;;;;;;;;;;5110652;28;20024;-66
2021/06/01 21:03:30;;;;;;;7.07;2.80;;;;;;;;;;5111295;28;20119;-65
2021/06/01 21:05:58;;;;;;;4.70;2.58;;;;;;;;;;5108196;28;20145;-66
2021/06/01 21:08:24;;;;;;;11.13;3.08;;;;;;;;;;5111307;28;20105;-67
2021/06/01 21:10:49;;;;;;;6.07;2.53;;;;;;;;;;5096706;28;20109;-66
2021/06/01 21:13:15;;;;;;;8.93;3.35;;;;;;;;;;5102698;28;20043;-66
2021/06/01 21:15:41;;;;;;;5.45;2.50;;;;;;;;;;5085364;28;20027;-66
2021/06/01 21:18:06;;;;;;;11.48;3.08;;;;;;;;;;5107112;28;20119;-67
2021/06/01 21:20:32;;;;;;;4.72;2.90;;;;;;;;;;5095443;28;20042;-66
2021/06/01 21:23:00;;;;;;;5.28;2.70;;;;;;;;;;5101639;28;20436;-66